createdAt,value
2018-08-22T00:00:16.988Z,11.53
2018-08-22T00:02:45.493Z,9.50
2018-08-22T00:05:14.031Z,9.78
2018-08-22T00:07:42.469Z,10.50
2018-08-22T00:10:10.908Z,9.30
2018-08-22T00:12:39.433Z,11.03
2018-08-22T00:15:07.849Z,10.23
2018-08-22T00:17:36.286Z,10.65
2018-08-22T00:20:05.284Z,11.35
2018-08-22T00:22:33.813Z,11.05
2018-08-22T00:25:02.195Z,11.65
2018-08-22T00:27:30.609Z,12.23
2018-08-22T00:29:59.072Z,12.55
2018-08-22T00:32:27.604Z,12.47
2018-08-22T00:34:56.020Z,12.37
2018-08-22T00:37:24.491Z,15.25
2018-08-22T00:39:52.966Z,14.33
2018-08-22T00:42:21.463Z,13.98
2018-08-22T00:44:50.041Z,13.80
2018-08-22T00:47:25.108Z,13.98
2018-08-22T00:49:53.590Z,13.95
2018-08-22T00:52:22.077Z,13.05
2018-08-22T00:54:50.555Z,13.45
2018-08-22T00:57:19.120Z,15.40
2018-08-22T00:59:47.682Z,15.00
2018-08-22T01:02:16.153Z,13.62
2018-08-22T01:04:44.663Z,11.93
2018-08-22T01:07:13.106Z,13.90
2018-08-22T01:09:41.554Z,14.45
2018-08-22T01:12:09.998Z,15.15
2018-08-22T01:14:38.469Z,16.25
2018-08-22T01:17:06.993Z,15.05
2018-08-22T01:19:35.419Z,17.73
2018-08-22T01:22:03.807Z,15.60
2018-08-22T01:24:32.542Z,18.40
2018-08-22T01:27:00.988Z,20.48
2018-08-22T01:29:29.394Z,18.40
2018-08-22T01:31:57.861Z,18.60
2018-08-22T01:34:26.277Z,16.42
2018-08-22T01:36:54.654Z,16.37
2018-08-22T01:39:23.309Z,19.05
2018-08-22T01:41:51.701Z,17.25
2018-08-22T01:44:20.174Z,15.23
2018-08-22T01:46:48.520Z,13.18
2018-08-22T01:49:17.646Z,14.38
2018-08-22T01:51:46.025Z,13.58
2018-08-22T01:54:14.431Z,12.53
2018-08-22T01:56:42.918Z,10.30
2018-08-22T01:59:11.369Z,11.22
2018-08-22T02:01:39.895Z,12.45
2018-08-22T02:04:08.476Z,10.82
2018-08-22T02:06:36.950Z,10.25
2018-08-22T02:09:08.320Z,12.80
2018-08-22T02:11:36.734Z,11.60
2018-08-22T02:14:05.289Z,11.48
2018-08-22T02:16:34.093Z,14.38
2018-08-22T02:19:02.559Z,15.23
2018-08-22T02:21:30.989Z,16.02
2018-08-22T02:23:59.436Z,13.98
2018-08-22T02:26:27.854Z,12.68
2018-08-22T02:28:56.283Z,14.05
2018-08-22T02:31:24.700Z,15.03
2018-08-22T02:33:53.117Z,13.68
2018-08-22T02:36:21.548Z,13.15
2018-08-22T02:38:50.048Z,13.65
2018-08-22T02:41:18.479Z,12.73
2018-08-22T02:43:46.877Z,12.73
2018-08-22T02:46:15.262Z,10.85
2018-08-22T02:48:49.025Z,13.55
2018-08-22T02:51:17.489Z,16.12
2018-08-22T02:53:45.954Z,13.30
2018-08-22T02:56:14.354Z,16.07
2018-08-22T02:58:42.776Z,13.95
2018-08-22T03:01:11.232Z,12.73
2018-08-22T03:03:39.857Z,14.28
2018-08-22T03:06:08.297Z,12.30
2018-08-22T03:08:36.722Z,12.25
2018-08-22T03:11:06.004Z,13.43
2018-08-22T03:13:34.477Z,13.58
2018-08-22T03:16:02.850Z,13.80
2018-08-22T03:18:31.290Z,16.82
2018-08-22T03:21:00.322Z,13.58
2018-08-22T03:23:28.744Z,16.50
2018-08-22T03:25:57.276Z,14.10
2018-08-22T03:28:25.681Z,15.05
2018-08-22T03:31:00.611Z,12.85
2018-08-22T03:33:29.007Z,11.85
2018-08-22T03:35:57.455Z,12.35
2018-08-22T03:38:25.925Z,11.30
2018-08-22T03:40:54.329Z,10.72
2018-08-22T03:43:22.744Z,10.05
2018-08-22T03:45:51.194Z,10.53
2018-08-22T03:48:19.644Z,11.12
2018-08-22T03:50:48.109Z,9.78
2018-08-22T03:53:16.446Z,10.60
2018-08-22T03:55:44.922Z,9.35
2018-08-22T03:58:13.525Z,9.20
2018-08-22T04:00:41.994Z,10.08
2018-08-22T04:03:10.455Z,10.48
2018-08-22T04:05:38.964Z,9.25
2018-08-22T04:08:08.704Z,8.90
2018-08-22T04:10:37.361Z,10.90
2018-08-22T04:13:05.935Z,10.28
2018-08-22T04:15:34.398Z,9.88
2018-08-22T04:18:02.869Z,10.35
2018-08-22T04:20:31.345Z,9.43
2018-08-22T04:22:59.795Z,8.63
2018-08-22T04:25:28.203Z,9.45
2018-08-22T04:27:56.592Z,9.55
2018-08-22T04:30:24.994Z,8.43
2018-08-22T04:32:53.514Z,9.50
2018-08-22T04:35:22.036Z,7.83
2018-08-22T04:37:50.758Z,9.35
2018-08-22T04:40:19.144Z,8.45
2018-08-22T04:42:47.539Z,8.98
2018-08-22T04:45:15.884Z,8.33
2018-08-22T04:47:44.622Z,8.65
2018-08-22T04:50:13.092Z,7.75
2018-08-22T04:52:48.195Z,8.10
2018-08-22T04:55:16.783Z,8.43
2018-08-22T04:57:45.258Z,8.18
2018-08-22T05:00:13.772Z,8.25
2018-08-22T05:02:48.945Z,7.83
2018-08-22T05:05:17.407Z,8.60
2018-08-22T05:07:45.909Z,8.50
2018-08-22T05:10:14.500Z,9.60
2018-08-22T05:12:49.647Z,9.08
2018-08-22T05:15:18.149Z,7.37
2018-08-22T05:17:46.648Z,8.38
2018-08-22T05:20:15.179Z,7.78
2018-08-22T05:22:43.705Z,10.00
2018-08-22T05:25:12.176Z,8.60
2018-08-22T05:27:40.685Z,8.85
2018-08-22T05:30:09.414Z,8.83
2018-08-22T05:32:38.536Z,9.40
2018-08-22T05:35:07.181Z,9.15
2018-08-22T05:37:35.725Z,9.60
2018-08-22T05:40:04.240Z,9.03
2018-08-22T05:42:32.690Z,9.38
2018-08-22T05:45:01.322Z,9.38
2018-08-22T05:47:29.786Z,9.75
2018-08-22T05:49:58.327Z,8.80
2018-08-22T05:52:26.813Z,8.95
2018-08-22T05:54:55.303Z,9.45
2018-08-22T05:57:23.832Z,9.88
2018-08-22T05:59:52.308Z,8.55
2018-08-22T06:02:20.770Z,8.28
2018-08-22T06:04:49.246Z,8.78
2018-08-22T06:07:17.706Z,9.10
2018-08-22T06:09:46.214Z,9.53
2018-08-22T06:12:14.651Z,9.58
2018-08-22T06:14:43.217Z,8.65
2018-08-22T06:17:11.718Z,9.28
2018-08-22T06:19:40.317Z,8.85
2018-08-22T06:22:08.911Z,9.53
2018-08-22T06:24:37.450Z,10.25
2018-08-22T06:27:06.103Z,9.45
2018-08-22T06:29:34.590Z,10.88
2018-08-22T06:32:03.068Z,9.88
2018-08-22T06:34:31.760Z,7.58
2018-08-22T06:37:00.861Z,8.50
2018-08-22T06:39:29.381Z,8.83
2018-08-22T06:41:57.889Z,8.65
2018-08-22T06:44:26.409Z,7.80
2018-08-22T06:46:55.068Z,8.60
2018-08-22T06:49:23.716Z,8.38
2018-08-22T06:51:52.339Z,7.28
2018-08-22T06:54:20.980Z,6.22
2018-08-22T06:56:49.505Z,6.15
2018-08-22T06:59:17.945Z,6.85
2018-08-22T07:01:46.391Z,6.35
2018-08-22T07:04:15.029Z,6.75
2018-08-22T07:06:43.650Z,6.70
2018-08-22T07:09:12.607Z,6.95
2018-08-22T07:11:41.142Z,7.33
2018-08-22T07:14:10.078Z,8.00
2018-08-22T07:16:45.117Z,7.58
2018-08-22T07:19:13.550Z,9.28
2018-08-22T07:21:42.018Z,10.23
2018-08-22T07:24:10.688Z,11.93
2018-08-22T07:26:39.072Z,8.45
2018-08-22T07:29:08.815Z,9.78
2018-08-22T07:31:37.312Z,12.25
2018-08-22T07:34:05.765Z,9.73
2018-08-22T07:36:35.179Z,12.43
2018-08-22T07:39:03.933Z,11.95
2018-08-22T07:41:32.311Z,12.70
2018-08-22T07:44:00.829Z,10.78
2018-08-22T07:46:29.196Z,11.80
2018-08-22T07:48:57.632Z,10.23
2018-08-22T07:51:27.218Z,8.35
2018-08-22T07:53:55.719Z,10.68
2018-08-22T07:56:25.125Z,9.33
2018-08-22T07:59:05.845Z,8.35
2018-08-22T08:01:37.377Z,8.40
2018-08-22T08:04:06.845Z,8.08
2018-08-22T08:06:36.407Z,9.35
2018-08-22T08:09:09.175Z,8.15
2018-08-22T08:11:42.501Z,10.20
2018-08-22T08:14:11.842Z,8.95
2018-08-22T08:16:41.789Z,10.48
2018-08-22T08:22:16.454Z,9.28
2018-08-22T08:30:41.119Z,11.03
2018-08-22T08:33:11.012Z,9.73
2018-08-22T08:35:39.633Z,10.20
2018-08-22T08:38:08.167Z,9.53
2018-08-22T08:40:36.571Z,9.35
2018-08-22T08:43:06.073Z,10.55
2018-08-22T08:45:35.697Z,9.43
2018-08-22T08:48:04.319Z,9.55
2018-08-22T08:50:32.827Z,9.68
2018-08-22T08:53:01.292Z,11.95
2018-08-22T08:55:29.686Z,11.25
2018-08-22T08:57:58.072Z,8.95
2018-08-22T09:00:43.284Z,10.25
2018-08-22T09:03:11.808Z,12.80
2018-08-22T09:08:35.215Z,11.22
2018-08-22T09:11:03.711Z,11.75
2018-08-22T09:13:32.153Z,10.38
2018-08-22T09:16:00.672Z,12.15
2018-08-22T09:18:29.117Z,10.30
2018-08-22T09:20:57.642Z,10.82
2018-08-22T09:23:26.189Z,11.05
2018-08-22T09:25:54.623Z,12.40
2018-08-22T09:28:23.266Z,12.82
2018-08-22T09:30:51.719Z,14.60
2018-08-22T09:33:20.194Z,12.73
2018-08-22T09:35:48.885Z,17.25
2018-08-22T09:38:17.270Z,16.48
2018-08-22T09:40:45.693Z,14.93
2018-08-22T09:43:14.209Z,11.68
2018-08-22T09:45:42.797Z,11.68
2018-08-22T09:48:11.142Z,10.20
2018-08-22T09:50:39.666Z,11.45
2018-08-22T09:53:09.150Z,11.97
2018-08-22T09:55:37.589Z,12.53
2018-08-22T09:58:06.064Z,13.48
2018-08-22T10:00:39.875Z,12.45
2018-08-22T10:03:08.715Z,13.38
2018-08-22T10:05:37.218Z,12.20
2018-08-22T10:08:05.694Z,12.05
2018-08-22T10:10:34.392Z,11.20
2018-08-22T10:13:02.876Z,13.13
2018-08-22T10:15:31.471Z,12.73
2018-08-22T10:17:59.967Z,11.05
2018-08-22T10:20:28.376Z,12.98
2018-08-22T10:22:56.859Z,9.48
2018-08-22T10:25:25.294Z,10.82
2018-08-22T10:27:53.680Z,10.25
2018-08-22T10:30:22.198Z,9.80
2018-08-22T10:32:50.774Z,9.90
2018-08-22T10:35:19.099Z,10.53
2018-08-22T10:37:47.621Z,9.03
2018-08-22T10:40:22.788Z,9.08
2018-08-22T10:42:51.318Z,10.15
2018-08-22T10:45:19.814Z,7.58
2018-08-22T10:47:48.256Z,6.78
2018-08-22T10:50:16.693Z,7.58
2018-08-22T10:52:45.039Z,6.75
2018-08-22T10:55:13.672Z,9.43
2018-08-22T10:57:42.746Z,8.73
2018-08-22T11:00:11.246Z,9.08
2018-08-22T11:02:39.796Z,8.60
2018-08-22T11:05:09.624Z,7.55
2018-08-22T11:07:38.104Z,8.15
2018-08-22T11:10:06.578Z,9.30
2018-08-22T11:12:35.198Z,9.60
2018-08-22T11:15:03.692Z,9.28
2018-08-22T11:17:32.212Z,8.85
2018-08-22T11:20:00.653Z,9.33
2018-08-22T11:22:40.263Z,9.03
2018-08-22T11:25:19.913Z,8.78
2018-08-22T11:27:59.762Z,6.22
2018-08-22T11:30:39.264Z,7.22
2018-08-22T11:33:18.873Z,9.83
2018-08-22T11:35:58.634Z,9.30
2018-08-22T11:38:27.055Z,10.10
2018-08-22T11:40:55.618Z,10.30
2018-08-22T11:43:24.310Z,12.05
2018-08-22T11:45:52.700Z,9.75
2018-08-22T11:48:21.093Z,10.28
2018-08-22T11:50:49.610Z,10.75
2018-08-22T11:53:18.029Z,9.48
2018-08-22T11:55:47.448Z,11.00
2018-08-22T11:58:16.228Z,12.58
2018-08-22T12:00:44.724Z,14.80
2018-08-22T12:03:13.196Z,13.85
2018-08-22T12:05:41.674Z,13.48
2018-08-22T12:08:10.157Z,13.25
2018-08-22T12:10:38.687Z,14.70
2018-08-22T12:13:07.057Z,12.35
2018-08-22T12:15:41.880Z,12.40
2018-08-22T12:18:10.617Z,10.48
2018-08-22T12:20:39.069Z,11.88
2018-08-22T12:23:07.561Z,9.65
2018-08-22T12:25:36.095Z,10.72
2018-08-22T12:28:04.750Z,10.95
2018-08-22T12:30:33.153Z,8.70
2018-08-22T12:33:01.494Z,11.00
2018-08-22T12:35:29.874Z,11.83
2018-08-22T12:37:58.276Z,10.63
2018-08-22T12:40:26.675Z,13.15
2018-08-22T12:42:55.051Z,12.80
2018-08-22T12:45:23.427Z,12.60
2018-08-22T12:47:51.881Z,10.95
2018-08-22T12:50:20.415Z,12.80
2018-08-22T12:52:49.126Z,12.37
2018-08-22T12:55:17.504Z,11.48
2018-08-22T12:57:45.900Z,9.43
2018-08-22T13:00:14.311Z,10.03
2018-08-22T13:02:42.793Z,10.30
2018-08-22T13:05:11.253Z,10.68
2018-08-22T13:07:39.770Z,8.55
2018-08-22T13:10:08.335Z,8.53
2018-08-22T13:12:36.814Z,9.53
2018-08-22T13:15:06.079Z,7.33
2018-08-22T13:17:34.544Z,6.95
2018-08-22T13:20:03.028Z,8.70
2018-08-22T13:22:31.421Z,8.05
2018-08-22T13:25:00.011Z,7.05
2018-08-22T13:27:28.940Z,10.13
2018-08-22T13:29:57.614Z,7.97
2018-08-22T13:32:26.074Z,8.00
2018-08-22T13:34:54.497Z,5.85
2018-08-22T13:37:23.009Z,6.30
2018-08-22T13:39:51.520Z,6.53
2018-08-22T13:42:20.118Z,6.72
2018-08-22T13:44:48.525Z,8.53
2018-08-22T13:47:16.904Z,7.85
2018-08-22T13:49:45.420Z,7.25
2018-08-22T13:52:13.902Z,9.25
2018-08-22T13:54:42.479Z,6.78
2018-08-22T13:57:10.919Z,6.95
2018-08-22T13:59:39.325Z,7.97
2018-08-22T14:02:07.773Z,7.50
2018-08-22T14:04:36.225Z,7.70
2018-08-22T14:07:04.609Z,6.75
2018-08-22T14:09:33.056Z,6.60
2018-08-22T14:12:01.471Z,6.87
2018-08-22T14:14:29.954Z,8.70
2018-08-22T14:16:58.360Z,9.10
2018-08-22T14:19:26.774Z,8.83
2018-08-22T14:21:55.131Z,8.53
2018-08-22T14:24:23.548Z,6.92
2018-08-22T14:26:52.035Z,9.28
2018-08-22T14:29:20.418Z,9.70
2018-08-22T14:31:48.897Z,8.50
2018-08-22T14:34:17.443Z,8.10
2018-08-22T14:36:45.818Z,7.22
2018-08-22T14:39:14.260Z,6.22
2018-08-22T14:41:43.007Z,7.55
2018-08-22T14:44:11.524Z,8.00
2018-08-22T14:46:39.935Z,7.85
2018-08-22T14:49:08.325Z,6.67
2018-08-22T14:51:36.802Z,7.45
2018-08-22T14:54:05.416Z,6.90
2018-08-22T14:56:34.333Z,7.55
2018-08-22T14:59:03.008Z,7.72
2018-08-22T15:01:31.642Z,5.62
2018-08-22T15:04:00.107Z,6.30
2018-08-22T15:06:28.655Z,6.42
2018-08-22T15:09:02.121Z,7.55
2018-08-22T15:11:30.534Z,6.53
2018-08-22T15:13:59.036Z,6.28
2018-08-22T15:16:27.432Z,6.37
2018-08-22T15:18:56.000Z,8.65
2018-08-22T15:21:24.479Z,5.72
2018-08-22T15:23:53.381Z,7.25
2018-08-22T15:26:21.868Z,6.30
2018-08-22T15:28:50.270Z,7.70
2018-08-22T15:31:18.822Z,8.23
2018-08-22T15:33:47.261Z,7.58
2018-08-22T15:36:15.689Z,7.75
2018-08-22T15:38:44.686Z,6.25
2018-08-22T15:41:13.302Z,7.47
2018-08-22T15:43:41.717Z,6.08
2018-08-22T15:46:10.185Z,7.35
2018-08-22T15:48:38.672Z,5.80
2018-08-22T15:51:07.102Z,7.10
2018-08-22T15:53:35.726Z,6.87
2018-08-22T15:56:04.272Z,6.47
2018-08-22T15:58:33.056Z,6.17
2018-08-22T16:01:01.764Z,5.65
2018-08-22T16:03:30.344Z,6.05
2018-08-22T16:05:59.141Z,6.03
2018-08-22T16:08:28.641Z,6.20
2018-08-22T16:10:57.082Z,7.90
2018-08-22T16:13:28.722Z,5.03
2018-08-22T16:16:00.231Z,5.45
2018-08-22T16:18:28.817Z,6.08
2018-08-22T16:20:58.436Z,5.53
2018-08-22T16:23:28.831Z,5.87
2018-08-22T16:25:58.467Z,6.97
2018-08-22T16:28:27.738Z,6.08
2018-08-22T16:30:57.656Z,7.37
2018-08-22T16:33:25.968Z,7.12
2018-08-22T16:35:54.500Z,7.15
2018-08-22T16:38:23.102Z,7.47
2018-08-22T16:40:53.354Z,5.92
2018-08-22T16:43:37.176Z,7.20
2018-08-22T16:46:09.218Z,7.53
2018-08-22T16:48:38.672Z,7.70
2018-08-22T16:51:07.089Z,7.72
2018-08-22T16:53:36.396Z,5.75
2018-08-22T16:56:04.993Z,9.43
2018-08-22T16:58:33.834Z,6.80
2018-08-22T17:01:02.263Z,8.70
2018-08-22T17:03:30.709Z,9.95
2018-08-22T17:06:04.621Z,7.83
2018-08-22T17:08:33.569Z,12.93
2018-08-22T17:11:03.712Z,7.65
2018-08-22T17:13:43.146Z,8.15
2018-08-22T17:16:11.703Z,7.05
2018-08-22T17:18:40.430Z,7.67
2018-08-22T17:21:09.317Z,7.80
2018-08-22T17:23:38.088Z,9.25
2018-08-22T17:26:11.043Z,8.05
2018-08-22T17:28:41.655Z,8.85
2018-08-22T17:31:10.847Z,8.85
2018-08-22T17:33:41.025Z,6.87
2018-08-22T17:36:10.619Z,8.18
2018-08-22T17:38:42.539Z,7.05
2018-08-22T17:41:11.130Z,6.60
2018-08-22T17:44:06.493Z,7.85
2018-08-22T17:46:43.373Z,7.72
2018-08-22T17:49:11.980Z,7.62
2018-08-22T17:52:13.231Z,7.55
2018-08-22T17:54:42.226Z,6.47
2018-08-22T17:57:19.146Z,5.50
2018-08-22T17:59:47.689Z,6.85
2018-08-22T18:02:16.257Z,6.12
2018-08-22T18:04:53.130Z,5.65
2018-08-22T18:07:21.587Z,5.05
2018-08-22T18:09:50.887Z,6.50
2018-08-22T18:12:21.368Z,5.25
2018-08-22T18:14:49.769Z,5.55
2018-08-22T18:17:20.259Z,6.10
2018-08-22T18:19:48.981Z,5.33
2018-08-22T18:22:17.626Z,5.20
2018-08-22T18:24:50.079Z,5.40
2018-08-22T18:27:18.594Z,4.53
2018-08-22T18:29:47.121Z,3.65
2018-08-22T18:32:16.490Z,4.05
2018-08-22T18:34:59.464Z,5.28
2018-08-22T18:37:30.692Z,5.70
2018-08-22T18:40:10.744Z,4.40
2018-08-22T18:42:39.573Z,4.67
2018-08-22T18:45:08.540Z,4.83
2018-08-22T18:47:37.315Z,3.90
2018-08-22T18:50:06.252Z,4.00
2018-08-22T18:52:34.739Z,5.28
2018-08-22T18:55:03.557Z,4.62
2018-08-22T18:57:32.121Z,4.83
2018-08-22T19:00:03.340Z,4.97
2018-08-22T19:02:32.517Z,5.17
2018-08-22T19:05:17.087Z,5.20
2018-08-22T19:07:56.288Z,5.85
2018-08-22T19:10:26.974Z,5.62
2018-08-22T19:12:59.006Z,5.62
2018-08-22T19:15:27.384Z,5.87
2018-08-22T19:17:55.758Z,5.12
2018-08-22T19:20:24.933Z,6.12
2018-08-22T19:22:53.596Z,6.12
2018-08-22T19:25:22.004Z,6.85
2018-08-22T19:27:52.094Z,6.65
2018-08-22T19:30:20.528Z,7.05
2018-08-22T19:32:49.621Z,6.65
2018-08-22T19:35:18.135Z,6.00
2018-08-22T19:37:55.834Z,6.62
2018-08-22T19:40:26.006Z,6.70
2018-08-22T19:42:54.673Z,6.72
2018-08-22T19:45:23.354Z,6.83
2018-08-22T19:47:51.897Z,6.10
2018-08-22T19:50:20.395Z,6.20
2018-08-22T19:52:48.872Z,6.65
2018-08-22T19:55:17.277Z,6.45
2018-08-22T19:57:45.720Z,7.30
2018-08-22T20:00:14.964Z,7.50
2018-08-22T20:02:43.325Z,7.47
2018-08-22T20:05:12.385Z,7.65
2018-08-22T20:07:40.925Z,8.00
2018-08-22T20:10:09.990Z,7.50
2018-08-22T20:12:47.278Z,8.85
2018-08-22T20:15:15.711Z,8.40
2018-08-22T20:17:46.978Z,8.53
2018-08-22T20:20:18.374Z,9.15
2018-08-22T20:22:49.089Z,8.43
2018-08-22T20:25:17.973Z,8.53
2018-08-22T20:27:46.471Z,8.73
2018-08-22T20:30:16.747Z,8.90
2018-08-22T20:32:49.966Z,9.50
2018-08-22T20:35:23.613Z,8.35
2018-08-22T20:37:52.071Z,9.38
2018-08-22T20:40:21.587Z,10.23
2018-08-22T20:42:50.318Z,8.93
2018-08-22T20:45:23.046Z,9.65
2018-08-22T20:47:56.983Z,8.63
2018-08-22T20:50:26.193Z,9.33
2018-08-22T20:53:00.544Z,11.35
2018-08-22T20:55:29.107Z,10.18
2018-08-22T20:57:58.003Z,10.45
2018-08-22T21:00:26.691Z,10.18
2018-08-22T21:02:56.888Z,10.13
2018-08-22T21:05:25.764Z,9.63
2018-08-22T21:07:54.301Z,10.05
2018-08-22T21:10:22.782Z,10.98
2018-08-22T21:12:53.670Z,9.83
2018-08-22T21:15:22.069Z,11.18
2018-08-22T21:17:50.480Z,9.78
2018-08-22T21:20:22.754Z,10.63
2018-08-22T21:22:51.608Z,11.97
2018-08-22T21:25:20.106Z,10.53
2018-08-22T21:27:49.291Z,10.20
2018-08-22T21:30:18.050Z,10.85
2018-08-22T21:32:47.440Z,12.37
2018-08-22T21:35:21.167Z,12.03
2018-08-22T21:37:49.655Z,11.95
2018-08-22T21:40:18.080Z,11.65
2018-08-22T21:42:46.465Z,11.45
2018-08-22T21:45:14.880Z,10.55
2018-08-22T21:47:43.359Z,12.85
2018-08-22T21:50:12.532Z,9.95
2018-08-22T21:52:59.550Z,10.95
2018-08-22T21:55:33.262Z,11.73
2018-08-22T21:58:01.688Z,12.05
2018-08-22T22:00:30.274Z,13.18
2018-08-22T22:02:58.749Z,13.88
2018-08-22T22:05:38.334Z,11.63
2018-08-22T22:08:07.567Z,11.73
2018-08-22T22:10:36.105Z,13.38
2018-08-22T22:13:04.725Z,11.80
2018-08-22T22:15:39.365Z,13.90
2018-08-22T22:18:09.953Z,12.98
2018-08-22T22:20:38.721Z,12.90
2018-08-22T22:23:07.280Z,13.28
2018-08-22T22:25:35.722Z,12.82
2018-08-22T22:28:04.234Z,14.00
2018-08-22T22:30:32.891Z,13.43
2018-08-22T22:33:01.986Z,13.80
2018-08-22T22:35:35.653Z,15.55
2018-08-22T22:38:10.247Z,15.03
2018-08-22T22:40:46.280Z,16.97
2018-08-22T22:43:18.443Z,18.45
2018-08-22T22:45:50.839Z,14.40
2018-08-22T22:48:32.201Z,16.20
2018-08-22T22:51:01.306Z,11.95
2018-08-22T22:53:29.862Z,14.63
2018-08-22T22:55:58.498Z,13.35
2018-08-22T22:58:27.320Z,17.30
2018-08-22T23:00:55.751Z,15.78
2018-08-22T23:03:24.305Z,13.48
2018-08-22T23:05:52.745Z,16.05
2018-08-22T23:08:21.184Z,15.20
2018-08-22T23:10:49.572Z,14.10
2018-08-22T23:13:18.081Z,15.25
2018-08-22T23:15:46.871Z,15.43
2018-08-22T23:18:15.881Z,16.15
2018-08-22T23:20:44.857Z,14.28
2018-08-22T23:23:28.749Z,13.60
2018-08-22T23:26:04.947Z,13.68
2018-08-22T23:28:33.571Z,13.65
2018-08-22T23:31:02.052Z,12.98
2018-08-22T23:33:30.526Z,11.83
2018-08-22T23:35:59.012Z,14.28
2018-08-22T23:38:31.373Z,11.90
2018-08-22T23:41:00.769Z,12.47
2018-08-22T23:43:41.004Z,11.18
2018-08-22T23:46:11.043Z,10.93
2018-08-22T23:48:39.906Z,12.68
2018-08-22T23:51:13.726Z,10.53
2018-08-22T23:53:49.215Z,11.43
2018-08-22T23:56:22.810Z,10.72
2018-08-22T23:58:52.120Z,12.00
